QTR22X OTHH-VCBI
Flight info
| Callsign | QTR22X |
|---|---|
| Flight time | N/A |
| Altitude | 35000 |
| Route | BUNDU B415 SIXIV N318 TOLDA P570 EMURU M300 GADMA/N0487F370 M300 VASTU P895 BIKOK BIKOK1A |
| Aircraft | B77W/H-SDE1E2E3FGHIJ2J3J4J5M1RWXY/LB1D1 |
Departure
| Time | N/A |
|---|---|
| Airport | Hamad International Airport (OTHH) |
Arrival
| Time | 2026-05-03 20:18 |
|---|---|
| Airport | Bandaranaike International Colombo Airport (VCBI) |
| Time | Latitude | Longitude | Altitude | Speed | Heading |
|---|---|---|---|---|---|
| 2026-05-03 20:15 | 7.29267 | 79.96928 | 2360 ft | 165 kts | 218° |
| 2026-05-03 20:15 | 7.28347 | 79.96220 | 2179 ft | 168 kts | 218° |
| 2026-05-03 20:15 | 7.27442 | 79.95525 | 2011 ft | 161 kts | 217° |
| 2026-05-03 20:15 | 7.26543 | 79.94837 | 1786 ft | 161 kts | 217° |
| 2026-05-03 20:16 | 7.25688 | 79.94181 | 1564 ft | 146 kts | 217° |
| 2026-05-03 20:16 | 7.24909 | 79.93584 | 1407 ft | 139 kts | 216° |
| 2026-05-03 20:16 | 7.24139 | 79.92993 | 1235 ft | 141 kts | 216° |
| 2026-05-03 20:16 | 7.23380 | 79.92410 | 1072 ft | 135 kts | 217° |
| 2026-05-03 20:17 | 7.22616 | 79.91827 | 874 ft | 141 kts | 216° |
| 2026-05-03 20:17 | 7.21827 | 79.91221 | 669 ft | 143 kts | 216° |
| 2026-05-03 20:17 | 7.21039 | 79.90616 | 487 ft | 144 kts | 215° |
| 2026-05-03 20:17 | 7.20221 | 79.89989 | 317 ft | 149 kts | 215° |
| 2026-05-03 20:18 | 7.19392 | 79.89352 | 100 ft | 150 kts | 216° |
| 2026-05-03 20:18 | 7.18606 | 79.88757 | 34 ft | 130 kts | 217° |
| 2026-05-03 20:18 | 7.18010 | 79.88296 | 34 ft | 85 kts | 217° |
| 2026-05-03 20:18 | 7.17664 | 79.88032 | 34 ft | 32 kts | 217° |
| 2026-05-03 20:19 | 7.17553 | 79.87949 | 35 ft | 17 kts | 211° |
| 2026-05-03 20:19 | 7.17483 | 79.87965 | 34 ft | 7 kts | 133° |
| 2026-05-03 20:19 | 7.17451 | 79.88009 | 33 ft | 9 kts | 124° |
| 2026-05-03 20:19 | 7.17440 | 79.88067 | 32 ft | 9 kts | 68° |
| 2026-05-03 20:20 | 7.17486 | 79.88118 | 32 ft | 12 kts | 41° |
| 2026-05-03 20:20 | 7.17576 | 79.88189 | 32 ft | 20 kts | 37° |
| 2026-05-03 20:20 | 7.17601 | 79.88286 | 32 ft | 7 kts | 114° |
| 2026-05-03 20:20 | 7.17600 | 79.88325 | 32 ft | 4 kts | 45° |
| 2026-05-03 20:21 | 7.17627 | 79.88345 | 32 ft | 5 kts | 37° |
| 2026-05-03 20:21 | 7.17638 | 79.88353 | 32 ft | 1 kts | 37° |